createdAt,value
2023-02-07T00:00:28.827Z,48.23
2023-02-07T00:01:28.805Z,49.78
2023-02-07T00:02:28.758Z,44.98
2023-02-07T00:03:28.763Z,44.83
2023-02-07T00:04:28.736Z,44.34
2023-02-07T00:05:28.747Z,45.66
2023-02-07T00:06:28.728Z,51.96
2023-02-07T00:07:28.733Z,45.00
2023-02-07T00:08:28.721Z,45.40
2023-02-07T00:09:28.735Z,58.01
2023-02-07T00:10:28.670Z,52.28
2023-02-07T00:11:28.682Z,44.33
2023-02-07T00:12:28.721Z,55.82
2023-02-07T00:13:28.704Z,47.04
2023-02-07T00:14:28.702Z,48.32
2023-02-07T00:15:28.642Z,46.39
2023-02-07T00:16:28.723Z,51.74
2023-02-07T00:17:28.638Z,52.86
2023-02-07T00:19:00.637Z,50.76
2023-02-07T00:19:28.655Z,55.98
2023-02-07T00:20:28.628Z,58.76
2023-02-07T00:21:28.616Z,51.02
2023-02-07T00:22:28.724Z,50.62
2023-02-07T00:23:28.574Z,45.42
2023-02-07T00:24:28.582Z,45.33
2023-02-07T00:25:29.496Z,49.80
2023-02-07T00:26:28.587Z,50.07
2023-02-07T00:27:28.587Z,44.51
2023-02-07T00:28:28.730Z,50.02
2023-02-07T00:29:28.565Z,43.93
2023-02-07T00:30:28.575Z,45.65
2023-02-07T00:31:28.745Z,61.22
2023-02-07T00:32:28.548Z,47.34
2023-02-07T00:33:28.639Z,56.13
2023-02-07T00:34:28.518Z,44.53
2023-02-07T00:35:28.497Z,50.22
2023-02-07T00:36:28.500Z,45.69
2023-02-07T00:37:28.493Z,46.70
2023-02-07T00:38:28.484Z,44.06
2023-02-07T00:39:28.502Z,49.35
2023-02-07T00:40:28.504Z,51.14
2023-02-07T00:41:28.497Z,45.35
2023-02-07T00:42:28.456Z,45.13
2023-02-07T00:43:30.145Z,50.90
2023-02-07T00:44:29.507Z,45.74
2023-02-07T00:45:28.417Z,55.21
2023-02-07T00:46:28.559Z,57.14
2023-02-07T00:47:28.409Z,56.85
2023-02-07T00:48:28.410Z,45.55
2023-02-07T00:49:28.430Z,45.86
2023-02-07T00:50:28.372Z,49.35
2023-02-07T00:51:28.408Z,50.59
2023-02-07T00:52:28.382Z,50.05
2023-02-07T00:53:28.380Z,44.84
2023-02-07T00:54:28.411Z,46.14
2023-02-07T00:55:28.383Z,58.04
2023-02-07T00:56:28.382Z,44.56
2023-02-07T00:57:28.326Z,54.17
2023-02-07T00:58:28.349Z,46.70
2023-02-07T00:59:28.345Z,57.28
2023-02-07T01:00:28.346Z,44.61
2023-02-07T01:01:28.445Z,46.37
2023-02-07T01:02:28.303Z,52.19
2023-02-07T01:03:28.293Z,60.22
2023-02-07T01:04:28.336Z,45.41
2023-02-07T01:05:28.488Z,46.46
2023-02-07T01:06:28.286Z,46.17
2023-02-07T01:07:28.278Z,50.30
2023-02-07T01:08:28.276Z,45.73
2023-02-07T01:09:28.268Z,46.09
2023-02-07T01:10:28.306Z,53.98
2023-02-07T01:11:28.274Z,50.87
2023-02-07T01:12:28.252Z,52.47
2023-02-07T01:13:28.218Z,51.49
2023-02-07T01:14:28.256Z,44.98
2023-02-07T01:15:28.369Z,50.18
2023-02-07T01:16:28.260Z,57.69
2023-02-07T01:17:28.231Z,54.78
2023-02-07T01:18:28.229Z,45.50
2023-02-07T01:19:28.183Z,45.21
2023-02-07T01:20:28.176Z,59.39
2023-02-07T01:21:28.193Z,50.34
2023-02-07T01:22:28.171Z,57.39
2023-02-07T01:23:28.145Z,57.33
2023-02-07T01:24:28.133Z,59.07
2023-02-07T01:25:28.124Z,51.27
2023-02-07T01:26:28.194Z,54.34
2023-02-07T01:27:28.930Z,53.81
2023-02-07T01:28:28.133Z,45.05
2023-02-07T01:29:28.092Z,45.48
2023-02-07T01:30:28.145Z,56.68
2023-02-07T01:31:28.189Z,50.50
2023-02-07T01:32:28.112Z,54.05
2023-02-07T01:33:28.096Z,58.38
2023-02-07T01:34:28.061Z,46.73
2023-02-07T01:35:28.087Z,45.80
2023-02-07T01:36:28.108Z,45.15
2023-02-07T01:37:28.090Z,49.52
2023-02-07T01:38:28.048Z,46.11
2023-02-07T01:39:28.086Z,51.41
2023-02-07T01:40:28.055Z,53.99
2023-02-07T01:41:28.046Z,47.16
2023-02-07T01:42:27.999Z,48.67
2023-02-07T01:43:28.002Z,51.74
2023-02-07T01:44:28.109Z,46.89
2023-02-07T01:45:27.980Z,52.68
2023-02-07T01:46:28.074Z,50.15
2023-02-07T01:47:27.976Z,52.93
2023-02-07T01:48:28.032Z,47.43
2023-02-07T01:49:27.981Z,53.44
2023-02-07T01:50:27.977Z,58.98
2023-02-07T01:51:27.962Z,46.85
2023-02-07T01:52:27.920Z,44.78
2023-02-07T01:53:27.941Z,43.87
2023-02-07T01:54:27.932Z,50.25
2023-02-07T01:55:27.968Z,52.18
2023-02-07T01:56:32.120Z,46.56
2023-02-07T01:57:28.888Z,53.32
2023-02-07T01:58:27.946Z,48.95
2023-02-07T01:59:27.893Z,44.61
2023-02-07T02:00:27.868Z,44.18
2023-02-07T02:01:27.921Z,44.58
2023-02-07T02:02:27.910Z,46.48
2023-02-07T02:03:27.824Z,56.02
2023-02-07T02:04:27.868Z,45.63
2023-02-07T02:05:27.893Z,48.72
2023-02-07T02:06:27.823Z,44.66
2023-02-07T02:07:28.424Z,44.88
2023-02-07T02:08:27.795Z,53.62
2023-02-07T02:09:27.806Z,45.64
2023-02-07T02:10:27.814Z,44.32
2023-02-07T02:11:28.507Z,48.78
2023-02-07T02:12:28.776Z,44.29
2023-02-07T02:13:27.770Z,44.64
2023-02-07T02:14:27.772Z,44.17
2023-02-07T02:15:27.756Z,49.71
2023-02-07T02:16:27.797Z,49.53
2023-02-07T02:17:27.775Z,60.62
2023-02-07T02:18:27.744Z,45.09
2023-02-07T02:19:27.736Z,49.74
2023-02-07T02:20:27.722Z,45.67
2023-02-07T02:21:59.643Z,46.28
2023-02-07T02:22:27.720Z,49.27
2023-02-07T02:23:27.761Z,50.75
2023-02-07T02:24:27.703Z,43.70
2023-02-07T02:25:27.676Z,49.89
2023-02-07T02:26:27.717Z,50.24
2023-02-07T02:27:27.710Z,44.34
2023-02-07T02:28:27.652Z,44.79
2023-02-07T02:29:27.644Z,44.39
2023-02-07T02:30:27.668Z,49.62
2023-02-07T02:31:27.675Z,50.55
2023-02-07T02:32:27.647Z,45.87
2023-02-07T02:33:27.705Z,54.34
2023-02-07T02:34:27.631Z,51.06
2023-02-07T02:35:27.610Z,50.63
2023-02-07T02:36:27.605Z,49.49
2023-02-07T02:37:27.604Z,50.47
2023-02-07T02:38:27.630Z,46.61
2023-02-07T02:39:27.592Z,50.78
2023-02-07T02:40:27.559Z,51.05
2023-02-07T02:41:27.569Z,51.98
2023-02-07T02:42:27.562Z,50.69
2023-02-07T02:43:27.569Z,45.02
2023-02-07T02:44:27.544Z,51.02
2023-02-07T02:45:27.539Z,50.72
2023-02-07T02:46:27.583Z,46.38
2023-02-07T02:47:27.550Z,52.14
2023-02-07T02:48:27.515Z,54.15
2023-02-07T02:49:27.523Z,44.96
2023-02-07T02:50:27.491Z,53.15
2023-02-07T02:51:27.510Z,44.92
2023-02-07T02:52:40.734Z,44.50
2023-02-07T02:53:29.470Z,44.56
2023-02-07T02:54:27.550Z,46.63
2023-02-07T02:55:27.505Z,50.98
2023-02-07T02:56:27.499Z,52.19
2023-02-07T02:57:27.461Z,50.49
2023-02-07T02:58:27.457Z,44.07
2023-02-07T02:59:27.440Z,44.15
2023-02-07T03:00:27.456Z,49.66
2023-02-07T03:01:27.503Z,44.64
2023-02-07T03:02:27.404Z,44.27
2023-02-07T03:03:27.420Z,52.70
2023-02-07T03:04:27.403Z,44.85
2023-02-07T03:05:27.538Z,51.17
2023-02-07T03:06:27.388Z,49.66
2023-02-07T03:07:27.379Z,44.61
2023-02-07T03:08:27.381Z,51.14
2023-02-07T03:09:27.361Z,46.18
2023-02-07T03:10:28.371Z,48.25
2023-02-07T03:11:27.981Z,45.11
2023-02-07T03:12:27.372Z,44.89
2023-02-07T03:13:27.339Z,44.49
2023-02-07T03:14:27.319Z,44.54
2023-02-07T03:15:27.340Z,50.35
2023-02-07T03:16:27.322Z,51.64
2023-02-07T03:17:27.319Z,45.21
2023-02-07T03:18:27.285Z,45.05
2023-02-07T03:19:27.281Z,45.68
2023-02-07T03:20:27.410Z,45.91
2023-02-07T03:21:27.297Z,45.83
2023-02-07T03:22:27.264Z,52.66
2023-02-07T03:23:27.253Z,49.76
2023-02-07T03:24:27.233Z,46.07
2023-02-07T03:25:27.249Z,50.37
2023-02-07T03:26:27.284Z,48.63
2023-02-07T03:27:27.226Z,48.17
2023-02-07T03:28:27.263Z,46.77
2023-02-07T03:29:27.187Z,56.58
2023-02-07T03:30:27.225Z,58.03
2023-02-07T03:31:27.277Z,50.79
2023-02-07T03:32:27.194Z,51.02
2023-02-07T03:33:27.182Z,51.39
2023-02-07T03:34:27.173Z,45.57
2023-02-07T03:35:27.193Z,58.60
2023-02-07T03:36:27.161Z,51.50
2023-02-07T03:37:27.157Z,55.12
2023-02-07T03:38:27.190Z,54.88
2023-02-07T03:39:27.166Z,51.99
2023-02-07T03:40:27.115Z,59.21
2023-02-07T03:41:27.108Z,48.59
2023-02-07T03:42:27.093Z,55.54
2023-02-07T03:43:27.101Z,45.13
2023-02-07T03:44:27.106Z,51.80
2023-02-07T03:45:27.111Z,45.61
2023-02-07T03:46:27.106Z,45.95
2023-02-07T03:47:27.093Z,59.24
2023-02-07T04:04:06.045Z,52.06
2023-02-07T04:05:06.042Z,50.65
2023-02-07T04:06:06.038Z,57.59
2023-02-07T04:07:07.738Z,59.02
2023-02-07T04:08:07.153Z,63.32
2023-02-07T04:09:07.170Z,67.34
2023-02-07T04:10:07.166Z,48.19
2023-02-07T04:11:07.182Z,51.19
2023-02-07T04:12:07.186Z,55.87
2023-02-07T04:13:07.155Z,64.95
2023-02-07T04:14:07.103Z,56.11
2023-02-07T04:15:07.120Z,58.49
2023-02-07T04:16:07.161Z,57.68
2023-02-07T04:17:07.112Z,62.34
2023-02-07T04:18:07.075Z,53.96
2023-02-07T04:19:07.074Z,57.19
2023-02-07T04:20:07.075Z,66.28
2023-02-07T04:21:07.135Z,59.71
2023-02-07T04:22:07.068Z,59.46
2023-02-07T04:23:07.072Z,65.35
2023-02-07T04:24:07.072Z,55.97
2023-02-07T04:25:07.046Z,55.47
2023-02-07T04:26:07.134Z,65.62
2023-02-07T04:27:07.027Z,61.48
2023-02-07T04:28:07.075Z,60.42
2023-02-07T04:29:07.075Z,60.12
2023-02-07T04:30:07.048Z,60.68
2023-02-07T04:31:07.006Z,55.85
2023-02-07T04:32:07.078Z,62.16
2023-02-07T04:33:06.994Z,62.04
2023-02-07T04:34:06.977Z,57.80
2023-02-07T04:35:06.970Z,58.63
2023-02-07T04:36:06.965Z,60.05
2023-02-07T04:37:06.949Z,62.56
2023-02-07T04:38:06.968Z,54.30
2023-02-07T04:39:06.959Z,60.19
2023-02-07T04:40:06.928Z,65.49
2023-02-07T04:41:06.929Z,51.44
2023-02-07T04:42:06.909Z,61.33
2023-02-07T04:43:06.906Z,59.57
2023-02-07T04:44:06.933Z,66.42
2023-02-07T04:45:06.865Z,64.57
2023-02-07T04:46:06.940Z,67.81
2023-02-07T04:47:06.859Z,58.30
2023-02-07T04:48:06.878Z,63.82
2023-02-07T04:49:06.870Z,62.69
2023-02-07T04:50:06.899Z,66.52
2023-02-07T04:51:06.873Z,65.94
2023-02-07T04:52:06.837Z,58.98
2023-02-07T04:53:06.831Z,68.26
2023-02-07T04:54:06.860Z,64.50
2023-02-07T04:55:06.842Z,58.95
2023-02-07T04:56:06.813Z,61.78
2023-02-07T04:57:06.832Z,67.70
2023-02-07T04:58:06.817Z,71.43
2023-02-07T04:59:06.814Z,58.94
2023-02-07T05:00:06.788Z,70.89
2023-02-07T05:01:06.797Z,66.70
2023-02-07T05:02:06.757Z,65.88
2023-02-07T05:03:06.765Z,52.74
2023-02-07T05:04:06.827Z,58.85
2023-02-07T05:05:06.738Z,58.75
2023-02-07T05:06:06.722Z,57.58
2023-02-07T05:07:06.729Z,60.38
2023-02-07T05:08:06.712Z,67.48
2023-02-07T05:09:06.719Z,64.75
2023-02-07T05:10:06.754Z,66.09
2023-02-07T05:11:06.693Z,64.99
2023-02-07T05:12:06.681Z,62.48
2023-02-07T05:13:06.714Z,67.07
2023-02-07T05:14:06.706Z,62.54
2023-02-07T05:15:06.705Z,66.95
2023-02-07T05:16:06.713Z,62.52
2023-02-07T05:17:06.649Z,66.34
2023-02-07T05:18:06.658Z,60.17
2023-02-07T05:19:06.657Z,64.81
2023-02-07T05:20:06.632Z,57.74
2023-02-07T05:21:06.649Z,66.34
2023-02-07T05:22:06.629Z,62.43
2023-02-07T05:23:06.633Z,62.37
2023-02-07T05:24:06.603Z,62.59
2023-02-07T05:25:06.604Z,71.51
2023-02-07T05:26:06.615Z,62.52
2023-02-07T05:27:06.593Z,68.91
2023-02-07T05:28:06.644Z,68.65
2023-02-07T05:29:06.570Z,62.83
2023-02-07T05:30:06.547Z,63.09
2023-02-07T05:31:06.692Z,59.84
2023-02-07T05:32:06.982Z,71.26
2023-02-07T05:33:07.536Z,67.46
2023-02-07T05:34:06.543Z,62.28
2023-02-07T05:35:06.551Z,64.33
2023-02-07T05:36:06.521Z,70.34
2023-02-07T05:37:06.506Z,66.84
2023-02-07T05:38:06.521Z,60.66
2023-02-07T05:39:06.496Z,69.69
2023-02-07T05:40:06.539Z,65.28
2023-02-07T05:41:06.474Z,65.30
2023-02-07T05:42:06.482Z,66.40
2023-02-07T05:43:06.462Z,66.26
2023-02-07T05:44:06.524Z,71.54
2023-02-07T05:45:06.452Z,69.61
2023-02-07T05:46:06.516Z,66.66
2023-02-07T05:47:06.453Z,69.95
2023-02-07T05:48:06.483Z,66.39
2023-02-07T05:49:06.422Z,69.30
2023-02-07T05:50:06.427Z,71.23
2023-02-07T05:51:06.405Z,65.94
2023-02-07T05:52:06.389Z,66.48
2023-02-07T05:53:06.423Z,66.44
2023-02-07T05:54:06.839Z,69.05
2023-02-07T05:55:07.343Z,68.86
2023-02-07T05:56:06.388Z,69.20
2023-02-07T05:57:06.412Z,67.10
2023-02-07T05:58:06.445Z,63.32
2023-02-07T05:59:06.343Z,74.07
2023-02-07T06:00:06.356Z,69.35
2023-02-07T06:01:06.317Z,68.67
2023-02-07T06:02:06.400Z,68.96
2023-02-07T06:03:06.387Z,63.37
2023-02-07T06:04:06.335Z,72.45
2023-02-07T06:05:06.314Z,70.38
2023-02-07T06:06:06.310Z,59.72
2023-02-07T06:07:06.288Z,73.33
2023-02-07T06:08:06.273Z,69.66
2023-02-07T06:09:06.276Z,72.65
2023-02-07T06:10:06.269Z,69.41
2023-02-07T06:11:06.238Z,67.65
2023-02-07T06:12:06.232Z,71.22
2023-02-07T06:13:06.222Z,73.66
2023-02-07T06:14:06.231Z,68.64
2023-02-07T06:15:06.214Z,72.10
2023-02-07T06:16:06.290Z,69.14
2023-02-07T06:17:06.199Z,71.29
2023-02-07T06:18:20.263Z,72.61
2023-02-07T06:19:12.676Z,68.94
2023-02-07T06:20:12.391Z,70.26
2023-02-07T06:21:07.173Z,70.22
2023-02-07T06:22:07.415Z,72.17
2023-02-07T06:23:07.245Z,69.57
2023-02-07T06:24:07.153Z,71.24
2023-02-07T06:25:07.421Z,63.07
2023-02-07T06:26:07.645Z,73.11
2023-02-07T06:27:08.664Z,74.84
2023-02-07T06:28:06.793Z,71.09
2023-02-07T06:29:07.142Z,70.24
2023-02-07T06:30:07.191Z,70.69
2023-02-07T06:31:07.225Z,72.16
2023-02-07T06:32:06.485Z,74.86
2023-02-07T06:33:07.292Z,70.83
2023-02-07T06:34:08.207Z,72.47
2023-02-07T06:35:07.600Z,74.04
2023-02-07T06:36:09.226Z,73.08
2023-02-07T06:37:06.159Z,73.15
2023-02-07T06:38:06.136Z,71.64
2023-02-07T06:39:06.186Z,73.39
2023-02-07T06:40:06.064Z,70.02
2023-02-07T06:41:06.055Z,71.79
2023-02-07T06:42:06.128Z,70.64
2023-02-07T06:43:08.755Z,69.79
2023-02-07T06:44:06.138Z,71.26
2023-02-07T06:45:06.055Z,67.67
2023-02-07T06:46:06.094Z,68.16
2023-02-07T06:47:06.109Z,74.19
2023-02-07T06:48:06.125Z,71.51
2023-02-07T06:49:06.041Z,71.94
2023-02-07T06:50:07.621Z,69.88
2023-02-07T06:51:06.058Z,70.00
2023-02-07T06:52:06.016Z,70.59
2023-02-07T06:53:06.514Z,69.97
2023-02-07T06:54:05.974Z,71.78
2023-02-07T06:55:07.003Z,69.75
2023-02-07T06:56:05.974Z,66.45
2023-02-07T06:57:06.388Z,72.75
2023-02-07T06:58:05.942Z,72.63
2023-02-07T06:59:05.995Z,74.03
2023-02-07T07:00:06.593Z,71.20
2023-02-07T07:01:05.945Z,71.33
2023-02-07T07:02:05.992Z,67.42
2023-02-07T07:03:06.981Z,71.30
2023-02-07T07:04:05.981Z,63.39
2023-02-07T07:05:05.893Z,69.29
2023-02-07T07:06:06.768Z,68.51
2023-02-07T07:07:05.979Z,68.68
2023-02-07T07:08:05.949Z,72.92
2023-02-07T07:09:06.898Z,69.33
2023-02-07T07:10:05.942Z,72.92
2023-02-07T07:11:05.921Z,65.83
2023-02-07T07:12:05.881Z,68.02
2023-02-07T07:13:05.871Z,70.50
2023-02-07T07:14:05.866Z,69.30
2023-02-07T07:15:05.848Z,63.64
2023-02-07T07:16:05.874Z,70.60
2023-02-07T07:17:05.812Z,66.97
2023-02-07T07:18:05.838Z,71.83
2023-02-07T07:19:05.859Z,64.52
2023-02-07T07:20:05.849Z,73.38
2023-02-07T07:21:05.907Z,69.72
2023-02-07T07:22:37.657Z,63.13
2023-02-07T07:23:05.731Z,71.87
2023-02-07T07:24:05.706Z,65.64
2023-02-07T07:25:05.705Z,66.41
2023-02-07T07:26:05.721Z,71.93
2023-02-07T07:27:05.691Z,71.08
2023-02-07T07:28:05.765Z,68.50
2023-02-07T07:29:05.759Z,70.45
2023-02-07T07:30:05.670Z,64.99
2023-02-07T07:31:05.828Z,69.59
2023-02-07T07:32:05.779Z,70.74
2023-02-07T07:33:05.731Z,61.66
2023-02-07T07:34:06.645Z,72.75
2023-02-07T07:35:05.635Z,66.16
2023-02-07T07:36:06.066Z,72.92
2023-02-07T07:37:05.643Z,67.56
2023-02-07T07:38:05.603Z,66.79
2023-02-07T07:39:05.622Z,64.75
2023-02-07T07:40:05.695Z,71.12
2023-02-07T07:41:05.636Z,67.37
2023-02-07T07:42:05.649Z,70.50
2023-02-07T07:43:05.580Z,61.30
2023-02-07T07:44:05.875Z,63.14
2023-02-07T07:45:05.567Z,69.40
2023-02-07T07:46:05.554Z,69.49
2023-02-07T07:47:05.554Z,66.57
2023-02-07T07:48:05.559Z,69.08
2023-02-07T07:49:05.546Z,63.81
2023-02-07T07:50:05.533Z,70.10
2023-02-07T07:51:05.545Z,69.97
2023-02-07T07:52:06.530Z,68.03
2023-02-07T07:53:05.696Z,59.57
2023-02-07T07:54:06.550Z,68.06
2023-02-07T07:55:05.474Z,64.17
2023-02-07T07:56:05.474Z,69.98
2023-02-07T07:57:05.472Z,68.01
2023-02-07T07:58:05.473Z,67.71
2023-02-07T07:59:08.771Z,69.11
2023-02-07T08:00:07.434Z,64.09
2023-02-07T08:01:05.460Z,70.66
2023-02-07T08:02:05.459Z,63.75
2023-02-07T08:03:05.451Z,57.51
2023-02-07T08:04:05.447Z,68.69
2023-02-07T08:05:05.421Z,67.64
2023-02-07T08:06:05.404Z,69.56
2023-02-07T08:07:05.389Z,61.43
2023-02-07T08:08:05.386Z,66.06
2023-02-07T08:09:05.402Z,70.80
2023-02-07T08:10:05.387Z,65.47
2023-02-07T08:11:05.366Z,66.79
2023-02-07T08:12:05.362Z,60.20
2023-02-07T08:13:05.344Z,72.39
2023-02-07T08:14:05.362Z,66.41
2023-02-07T08:15:05.333Z,67.27
2023-02-07T08:16:05.361Z,69.91
2023-02-07T08:17:05.303Z,60.32
2023-02-07T08:18:06.330Z,66.52
2023-02-07T08:19:05.320Z,69.64
2023-02-07T08:20:05.310Z,67.47
2023-02-07T08:21:05.332Z,68.90
2023-02-07T08:22:05.280Z,66.50
2023-02-07T08:23:05.276Z,69.92
2023-02-07T08:24:05.257Z,69.60
2023-02-07T08:25:05.265Z,63.92
2023-02-07T08:26:05.275Z,67.58
2023-02-07T08:27:05.282Z,67.52
2023-02-07T08:28:05.298Z,65.91
2023-02-07T08:29:05.346Z,68.59
2023-02-07T08:30:05.315Z,64.67
2023-02-07T08:31:05.298Z,65.79
2023-02-07T08:32:05.221Z,65.29
2023-02-07T08:33:05.201Z,71.12
2023-02-07T08:34:05.199Z,65.63
2023-02-07T08:35:05.188Z,58.39
2023-02-07T08:36:05.165Z,69.04
2023-02-07T08:37:05.158Z,69.12
2023-02-07T08:38:05.185Z,71.53
2023-02-07T08:39:06.651Z,66.21
2023-02-07T08:40:06.124Z,65.95
2023-02-07T08:41:05.132Z,70.22
2023-02-07T08:42:05.137Z,68.45
2023-02-07T08:43:05.106Z,67.36
2023-02-07T08:44:05.125Z,67.95
2023-02-07T08:45:05.208Z,68.22
2023-02-07T08:46:05.160Z,68.22
2023-02-07T08:47:05.121Z,71.46
2023-02-07T08:48:06.076Z,69.27
2023-02-07T08:49:05.088Z,69.57
2023-02-07T08:50:05.057Z,67.38
2023-02-07T08:51:05.062Z,69.61
2023-02-07T08:52:05.083Z,64.12
2023-02-07T08:53:05.073Z,65.82
2023-02-07T08:54:05.282Z,65.04
2023-02-07T08:55:05.030Z,64.51
2023-02-07T08:56:05.021Z,62.25
2023-02-07T08:57:05.034Z,66.98
2023-02-07T08:58:05.033Z,66.53
2023-02-07T08:59:05.021Z,69.76
2023-02-07T09:00:04.974Z,71.67
2023-02-07T09:01:05.016Z,67.35
2023-02-07T09:02:05.007Z,69.57
2023-02-07T09:03:04.991Z,67.12
2023-02-07T09:04:04.963Z,62.96
2023-02-07T09:05:04.988Z,69.35
2023-02-07T09:06:04.951Z,71.51
2023-02-07T09:07:04.993Z,64.81
2023-02-07T09:08:04.949Z,66.18
2023-02-07T09:09:05.012Z,62.34
2023-02-07T09:10:04.916Z,63.61
2023-02-07T09:11:09.172Z,69.58
2023-02-07T09:12:05.936Z,65.88
2023-02-07T09:13:04.909Z,69.90
2023-02-07T09:14:04.908Z,68.43
2023-02-07T09:15:04.951Z,61.79
2023-02-07T09:16:04.887Z,62.17
2023-02-07T09:17:04.870Z,69.65
2023-02-07T09:18:04.873Z,70.14
2023-02-07T09:19:04.897Z,63.77
2023-02-07T09:20:04.844Z,67.23
2023-02-07T09:21:04.871Z,63.11
2023-02-07T09:22:04.834Z,67.24
2023-02-07T09:23:04.823Z,61.73
2023-02-07T09:24:04.808Z,67.70
2023-02-07T09:25:04.802Z,68.29
2023-02-07T09:26:04.828Z,63.03
2023-02-07T09:27:04.790Z,61.89
2023-02-07T09:28:04.786Z,63.80
2023-02-07T09:29:04.790Z,71.70
2023-02-07T09:30:04.788Z,66.15
2023-02-07T09:31:05.804Z,62.58
2023-02-07T09:32:05.774Z,61.75
2023-02-07T09:33:04.762Z,69.63
2023-02-07T09:34:04.748Z,70.77
2023-02-07T09:35:04.733Z,63.70
2023-02-07T09:36:04.794Z,64.62
2023-02-07T09:37:04.776Z,69.70
2023-02-07T09:38:04.700Z,66.69
2023-02-07T09:39:04.784Z,68.95
2023-02-07T09:40:04.689Z,66.67
2023-02-07T09:41:04.697Z,62.02
2023-02-07T09:42:05.563Z,67.50
2023-02-07T09:43:05.812Z,64.61
2023-02-07T09:44:04.770Z,67.12
2023-02-07T09:45:04.872Z,63.23
2023-02-07T09:46:05.316Z,66.26
2023-02-07T09:47:04.658Z,65.51
2023-02-07T09:48:04.647Z,64.97
2023-02-07T09:49:04.631Z,64.85
2023-02-07T09:50:04.618Z,64.69
2023-02-07T09:51:04.620Z,64.47
2023-02-07T09:52:04.596Z,66.81
2023-02-07T09:53:04.633Z,64.09
2023-02-07T09:54:04.603Z,67.05
2023-02-07T09:55:04.596Z,68.65
2023-02-07T09:56:04.578Z,67.29
2023-02-07T09:57:04.567Z,65.85
2023-02-07T09:58:04.600Z,66.95
2023-02-07T09:59:04.563Z,67.13
2023-02-07T10:00:04.541Z,70.06
2023-02-07T10:01:04.559Z,67.99
2023-02-07T10:02:04.505Z,68.25
2023-02-07T10:03:04.552Z,65.18
2023-02-07T10:04:04.488Z,62.89
2023-02-07T10:05:04.488Z,63.61
2023-02-07T10:06:17.526Z,65.61
2023-02-07T10:07:06.475Z,60.62
2023-02-07T10:08:04.511Z,65.77
2023-02-07T10:09:04.477Z,63.32
2023-02-07T10:10:04.441Z,69.88
2023-02-07T10:11:04.459Z,66.73
2023-02-07T10:12:04.432Z,66.93
2023-02-07T10:13:04.423Z,61.60
2023-02-07T10:14:04.460Z,69.39
2023-02-07T10:15:04.401Z,64.22
2023-02-07T10:16:04.439Z,64.68
2023-02-07T10:17:04.426Z,68.16
2023-02-07T10:18:04.403Z,61.57
2023-02-07T10:19:04.403Z,65.94
2023-02-07T10:20:04.361Z,66.05
2023-02-07T10:21:04.369Z,66.19
2023-02-07T10:22:04.358Z,73.50
2023-02-07T10:23:04.386Z,65.97
2023-02-07T10:24:04.356Z,67.58
2023-02-07T10:25:04.351Z,63.39
2023-02-07T10:26:04.361Z,63.63
2023-02-07T10:27:04.349Z,66.14
2023-02-07T10:28:04.353Z,62.99
2023-02-07T10:29:04.333Z,69.67
2023-02-07T10:30:04.276Z,66.64
2023-02-07T10:31:05.408Z,66.50
2023-02-07T10:32:04.336Z,69.10
2023-02-07T10:33:04.251Z,61.90
2023-02-07T10:34:04.268Z,63.71
2023-02-07T10:35:04.276Z,64.32
2023-02-07T10:36:04.266Z,70.00
2023-02-07T10:37:04.299Z,63.92
2023-02-07T10:38:04.233Z,68.83
2023-02-07T10:39:09.403Z,68.77
2023-02-07T10:40:06.230Z,68.27
2023-02-07T10:41:04.219Z,61.58
2023-02-07T10:42:04.199Z,67.98
2023-02-07T10:43:04.202Z,67.83
2023-02-07T10:44:04.175Z,64.95
2023-02-07T10:45:04.226Z,67.77
2023-02-07T10:46:06.557Z,58.83
2023-02-07T10:47:05.168Z,64.92
2023-02-07T10:48:04.190Z,65.01
2023-02-07T10:49:04.169Z,69.50
2023-02-07T10:50:04.169Z,60.98
2023-02-07T10:51:04.217Z,69.34
2023-02-07T10:52:04.141Z,66.74
2023-02-07T10:53:04.692Z,66.02
2023-02-07T10:54:04.112Z,64.88
2023-02-07T10:55:04.109Z,69.51
2023-02-07T10:56:04.101Z,67.36
2023-02-07T10:57:04.156Z,60.47
2023-02-07T10:58:17.693Z,68.66
2023-02-07T10:59:06.118Z,64.57
2023-02-07T11:00:04.056Z,69.73
2023-02-07T11:01:04.064Z,68.86
2023-02-07T11:02:04.092Z,59.88
2023-02-07T11:03:04.134Z,70.07
2023-02-07T11:04:04.052Z,65.67
2023-02-07T11:05:04.049Z,65.49
2023-02-07T11:06:04.090Z,66.44
2023-02-07T11:07:04.033Z,69.44
2023-02-07T11:08:04.074Z,63.50
2023-02-07T11:09:04.399Z,71.95
2023-02-07T11:10:03.995Z,64.14
2023-02-07T11:11:03.989Z,69.13
2023-02-07T11:12:04.024Z,68.23
2023-02-07T11:13:04.048Z,66.18
2023-02-07T11:14:04.045Z,68.41
2023-02-07T11:15:03.973Z,69.97
2023-02-07T11:16:04.214Z,66.02
2023-02-07T11:17:03.943Z,71.50
2023-02-07T11:18:03.954Z,57.13
2023-02-07T11:19:03.920Z,63.73
2023-02-07T11:20:03.926Z,69.65
2023-02-07T11:21:03.922Z,64.66
2023-02-07T11:22:03.907Z,65.65
2023-02-07T11:23:03.915Z,66.17
2023-02-07T11:24:03.916Z,69.59
2023-02-07T11:25:03.856Z,66.44
2023-02-07T11:26:03.855Z,68.47
2023-02-07T11:27:03.888Z,64.66
2023-02-07T11:28:03.900Z,68.18
2023-02-07T11:29:03.854Z,62.83
2023-02-07T11:30:03.834Z,58.47
2023-02-07T11:31:03.900Z,57.97
2023-02-07T11:32:03.805Z,66.81
2023-02-07T11:33:03.796Z,64.46
2023-02-07T11:34:03.818Z,66.81
2023-02-07T11:35:03.776Z,69.31
2023-02-07T11:36:03.793Z,69.43
2023-02-07T11:37:03.788Z,63.69
2023-02-07T11:38:04.777Z,70.24
2023-02-07T11:39:04.875Z,65.35
2023-02-07T11:40:03.770Z,67.53
2023-02-07T11:41:03.737Z,65.73
2023-02-07T11:42:03.741Z,66.73
2023-02-07T11:43:03.753Z,67.82
2023-02-07T11:44:03.711Z,54.20
2023-02-07T11:45:03.743Z,61.37
2023-02-07T11:46:03.702Z,64.50
2023-02-07T11:47:03.727Z,62.21
2023-02-07T11:48:03.678Z,69.25
2023-02-07T11:49:03.661Z,66.88
2023-02-07T11:50:03.697Z,57.58
2023-02-07T11:51:03.735Z,69.70
2023-02-07T11:52:03.647Z,69.87
2023-02-07T11:53:03.660Z,66.84
2023-02-07T11:54:03.659Z,66.70
2023-02-07T11:55:03.772Z,66.05
2023-02-07T11:56:03.638Z,66.22
2023-02-07T11:57:03.679Z,64.41
2023-02-07T11:58:03.618Z,67.43
2023-02-07T11:59:03.605Z,70.10
2023-02-07T12:00:03.617Z,68.98
2023-02-07T12:01:03.612Z,63.67
2023-02-07T12:02:03.635Z,62.92
2023-02-07T12:03:03.574Z,66.58
2023-02-07T12:04:03.698Z,70.94
2023-02-07T12:05:03.573Z,63.51
2023-02-07T12:06:03.606Z,63.77
2023-02-07T12:07:03.543Z,66.51
2023-02-07T12:08:03.613Z,66.39
2023-02-07T12:09:04.520Z,68.60
2023-02-07T12:10:03.537Z,67.98
2023-02-07T12:11:03.517Z,68.20
2023-02-07T12:12:03.491Z,65.24
2023-02-07T12:13:03.522Z,68.68
2023-02-07T12:14:03.491Z,64.44
2023-02-07T12:15:03.494Z,68.16
2023-02-07T12:16:03.535Z,56.54
2023-02-07T12:17:03.494Z,68.74
2023-02-07T12:18:03.475Z,68.10
2023-02-07T12:19:35.358Z,67.89
2023-02-07T12:20:03.463Z,69.66
2023-02-07T12:21:03.462Z,67.37
2023-02-07T12:22:03.436Z,65.74
2023-02-07T12:23:21.741Z,69.35
2023-02-07T12:24:05.425Z,65.32
2023-02-07T12:25:03.422Z,63.79
2023-02-07T12:26:03.417Z,73.20
2023-02-07T12:27:03.439Z,64.03
2023-02-07T12:28:03.403Z,67.69
2023-02-07T12:29:12.679Z,66.48
2023-02-07T12:30:05.423Z,68.45
2023-02-07T12:31:05.085Z,65.95
2023-02-07T12:32:03.454Z,68.15
2023-02-07T12:33:03.384Z,63.88
2023-02-07T12:34:03.352Z,66.32
2023-02-07T12:35:04.083Z,69.10
2023-02-07T12:36:03.930Z,67.08
2023-02-07T12:37:04.503Z,65.55
2023-02-07T12:38:04.332Z,64.76
2023-02-07T12:39:03.311Z,69.12
2023-02-07T12:40:03.322Z,67.30
2023-02-07T12:41:03.296Z,68.13
2023-02-07T12:42:03.311Z,67.76
2023-02-07T12:43:03.282Z,67.97
2023-02-07T12:44:04.283Z,64.04
2023-02-07T12:45:04.297Z,69.14
2023-02-07T12:46:03.351Z,65.24
2023-02-07T12:47:03.248Z,65.18
2023-02-07T12:48:03.228Z,70.00
2023-02-07T12:49:03.311Z,63.67
2023-02-07T12:50:03.242Z,68.98
2023-02-07T12:51:03.256Z,61.13
2023-02-07T12:52:03.250Z,68.87
2023-02-07T12:53:03.243Z,64.34
2023-02-07T12:54:03.199Z,67.44
2023-02-07T12:55:03.225Z,63.75
2023-02-07T12:56:03.228Z,59.15
2023-02-07T12:57:03.414Z,68.74
2023-02-07T12:58:03.160Z,65.85
2023-02-07T12:59:03.165Z,65.87
2023-02-07T13:00:03.188Z,64.13
2023-02-07T13:01:35.052Z,66.05
2023-02-07T13:02:03.208Z,66.52
2023-02-07T13:03:03.156Z,68.90
2023-02-07T13:04:03.108Z,67.08
2023-02-07T13:05:04.176Z,65.47
2023-02-07T13:06:03.098Z,69.10
2023-02-07T13:07:03.100Z,63.95
2023-02-07T13:08:03.149Z,61.90